Time;durP1;ratioP1;P1;durP2;ratioP2;P2;SDS_P1;SDS_P2;PMS_P1;PMS_P2;Temp;Humidity;BMP_temperature;BMP_pressure;BME280_temperature;BME280_humidity;BME280_pressure;Samples;Min_cycle;Max_cycle;Signal;HPM_P1;HPM_P2
2023/04/11 00:00:17;;;;;;;17.70;5.20;;;13.00;99.90;;;;;;5051051;28;20037;-74
2023/04/11 00:02:45;;;;;;;14.38;4.95;;;13.00;99.90;;;;;;5052010;28;20028;-74
2023/04/11 00:05:11;;;;;;;18.83;5.03;;;13.00;99.90;;;;;;5051658;28;20029;-74
2023/04/11 00:07:37;;;;;;;20.15;5.63;;;13.00;99.90;;;;;;5050646;28;20029;-74
2023/04/11 00:10:05;;;;;;;25.05;5.25;;;12.90;99.90;;;;;;5050692;28;20032;-74
2023/04/11 00:12:31;;;;;;;22.30;6.30;;;12.90;99.90;;;;;;5051788;28;20036;-74
2023/04/11 00:14:57;;;;;;;18.77;5.00;;;13.00;99.90;;;;;;5055170;28;20040;-74
2023/04/11 00:17:24;;;;;;;19.35;5.35;;;13.00;99.90;;;;;;5055129;28;20044;-74
2023/04/11 00:19:52;;;;;;;22.05;5.40;;;13.00;99.90;;;;;;5054036;28;20029;-74
2023/04/11 00:22:18;;;;;;;18.92;5.10;;;13.00;99.90;;;;;;5053926;28;20045;-74
2023/04/11 00:24:44;;;;;;;23.20;5.68;;;12.90;99.90;;;;;;5054599;28;20032;-74
2023/04/11 00:27:10;;;;;;;23.35;5.32;;;12.90;99.90;;;;;;5053918;28;20036;-74
2023/04/11 00:29:36;;;;;;;19.55;4.95;;;12.90;99.90;;;;;;5055381;28;20033;-74
2023/04/11 00:32:03;;;;;;;22.85;5.30;;;12.80;99.90;;;;;;5053645;28;20044;-74
2023/04/11 00:34:29;;;;;;;20.08;5.13;;;12.80;99.90;;;;;;5036994;28;20047;-74
2023/04/11 00:36:55;;;;;;;22.35;5.07;;;12.80;99.90;;;;;;5054055;28;20033;-74
2023/04/11 00:39:21;;;;;;;15.50;4.72;;;12.70;99.90;;;;;;5053974;28;20037;-74
2023/04/11 00:41:47;;;;;;;18.30;5.40;;;12.80;99.90;;;;;;5053877;28;20029;-74
2023/04/11 00:44:14;;;;;;;23.85;5.15;;;12.70;99.90;;;;;;5045067;28;20027;-74
2023/04/11 00:46:41;;;;;;;19.00;5.03;;;12.70;99.90;;;;;;5034763;28;20041;-74
2023/04/11 00:49:08;;;;;;;22.98;5.70;;;12.70;99.90;;;;;;5033546;28;20026;-74
2023/04/11 00:51:34;;;;;;;19.25;6.00;;;12.70;99.90;;;;;;5050893;28;20049;-74
2023/04/11 00:54:00;;;;;;;24.55;5.47;;;12.70;99.90;;;;;;5037203;28;20380;-74
2023/04/11 00:56:27;;;;;;;21.17;4.68;;;12.80;99.90;;;;;;5053690;28;20032;-74
2023/04/11 00:58:54;;;;;;;14.05;4.95;;;12.70;99.90;;;;;;5053756;28;20040;-74
2023/04/11 01:01:22;;;;;;;15.90;4.65;;;12.70;99.90;;;;;;5053098;28;20036;-74
2023/04/11 01:03:48;;;;;;;19.42;5.07;;;12.70;99.90;;;;;;5052831;28;20037;-74
2023/04/11 01:06:16;;;;;;;16.75;4.90;;;12.60;99.90;;;;;;5054594;28;20037;-74
2023/04/11 01:08:43;;;;;;;26.67;5.13;;;12.60;99.90;;;;;;5053569;28;20029;-74
2023/04/11 01:11:09;;;;;;;21.75;6.32;;;12.60;99.90;;;;;;5053470;28;20021;-74
2023/04/11 01:13:36;;;;;;;23.40;5.43;;;12.60;99.90;;;;;;5053271;28;20033;-74
2023/04/11 01:16:03;;;;;;;25.58;5.35;;;12.60;99.90;;;;;;5036373;28;20036;-74
2023/04/11 01:18:29;;;;;;;26.88;5.35;;;12.60;99.90;;;;;;5052971;28;20021;-74
2023/04/11 01:20:56;;;;;;;24.58;5.07;;;12.50;99.90;;;;;;5053430;28;20490;-74
2023/04/11 01:23:23;;;;;;;20.75;5.53;;;12.50;99.90;;;;;;5036817;28;20487;-74
2023/04/11 01:25:49;;;;;;;24.15;5.50;;;12.50;99.90;;;;;;5036785;28;20025;-74
2023/04/11 01:28:16;;;;;;;20.50;5.25;;;12.50;99.90;;;;;;5016762;28;20041;-74
2023/04/11 01:30:42;;;;;;;28.20;5.60;;;12.50;99.90;;;;;;5032699;28;20032;-74
2023/04/11 01:33:09;;;;;;;19.30;5.35;;;12.50;99.90;;;;;;5032859;28;20029;-74
2023/04/11 01:35:36;;;;;;;21.20;5.85;;;12.50;99.90;;;;;;5000121;28;20056;-74
2023/04/11 01:38:03;;;;;;;25.08;5.68;;;12.40;99.90;;;;;;5016543;28;20026;-74
2023/04/11 01:40:31;;;;;;;20.55;5.07;;;12.40;99.90;;;;;;5016627;28;20468;-74
2023/04/11 01:42:57;;;;;;;15.48;4.93;;;12.30;99.90;;;;;;5032933;28;20025;-74
2023/04/11 01:45:25;;;;;;;19.17;4.82;;;12.30;99.90;;;;;;5034491;28;20206;-74
2023/04/11 01:47:53;;;;;;;24.00;5.35;;;12.30;99.90;;;;;;5053574;28;20120;-74
2023/04/11 01:50:19;;;;;;;20.70;5.22;;;12.30;99.90;;;;;;5045753;28;20407;-74
2023/04/11 01:52:47;;;;;;;20.02;5.10;;;12.20;99.90;;;;;;5032808;28;20053;-74
2023/04/11 01:55:13;;;;;;;15.57;5.10;;;12.10;99.90;;;;;;5016192;28;20045;-74
2023/04/11 01:57:39;;;;;;;25.02;6.40;;;12.20;99.90;;;;;;5033637;28;20467;-74
2023/04/11 02:00:09;;;;;;;16.58;5.50;;;12.20;99.90;;;;;;5015471;28;20040;-74
2023/04/11 02:02:36;;;;;;;21.15;5.07;;;12.20;99.90;;;;;;5018154;28;20021;-74
2023/04/11 02:05:03;;;;;;;18.23;5.10;;;12.10;99.90;;;;;;5050888;28;20029;-74
2023/04/11 02:07:29;;;;;;;20.55;5.38;;;12.10;99.90;;;;;;5048751;28;20021;-74
2023/04/11 02:09:56;;;;;;;22.40;5.63;;;12.00;99.90;;;;;;5050523;28;20044;-74
2023/04/11 02:12:22;;;;;;;22.08;5.13;;;11.90;99.90;;;;;;5052072;28;20021;-74
2023/04/11 02:14:48;;;;;;;24.58;5.90;;;11.90;99.90;;;;;;5050624;28;20044;-74
2023/04/11 02:17:16;;;;;;;17.52;4.75;;;11.80;99.90;;;;;;5050162;28;20483;-74
2023/04/11 02:19:44;;;;;;;23.02;4.60;;;11.80;99.90;;;;;;5050715;28;20556;-74
2023/04/11 02:22:11;;;;;;;21.55;4.82;;;11.80;99.90;;;;;;5050872;28;20036;-74
2023/04/11 02:24:37;;;;;;;21.88;5.00;;;11.80;99.90;;;;;;5050763;28;20048;-74
2023/04/11 02:27:03;;;;;;;21.90;4.88;;;11.80;99.90;;;;;;5052007;28;20032;-74
2023/04/11 02:29:29;;;;;;;20.58;5.35;;;11.80;99.90;;;;;;5050310;28;20040;-74
2023/04/11 02:31:55;;;;;;;20.40;4.90;;;11.70;99.90;;;;;;5050121;28;20033;-74
2023/04/11 02:34:21;;;;;;;16.30;4.82;;;11.70;99.90;;;;;;5050635;28;20033;-75
2023/04/11 02:36:48;;;;;;;17.98;4.90;;;11.70;99.90;;;;;;5051271;28;20502;-74
2023/04/11 02:39:14;;;;;;;15.57;4.57;;;11.70;99.90;;;;;;5051704;28;20033;-74
2023/04/11 02:41:41;;;;;;;17.88;3.92;;;11.70;99.90;;;;;;5052859;28;20029;-74
2023/04/11 02:44:09;;;;;;;14.65;4.22;;;11.70;99.90;;;;;;5051363;28;20037;-74
2023/04/11 02:46:35;;;;;;;18.17;4.60;;;11.60;99.90;;;;;;5051205;28;20043;-74
2023/04/11 02:49:01;;;;;;;21.27;4.43;;;11.60;99.90;;;;;;5051486;28;20025;-74
2023/04/11 02:51:27;;;;;;;20.95;4.53;;;11.50;99.90;;;;;;5035035;28;20064;-75
2023/04/11 02:53:53;;;;;;;20.58;4.45;;;11.50;99.90;;;;;;5031656;28;20388;-74
2023/04/11 02:56:20;;;;;;;19.35;4.35;;;11.60;99.90;;;;;;5031452;28;20042;-74
2023/04/11 02:58:47;;;;;;;17.88;4.60;;;11.60;99.90;;;;;;5032486;28;20039;-74
2023/04/11 03:01:17;;;;;;;15.65;4.00;;;11.60;99.90;;;;;;5014771;28;20038;-74
2023/04/11 03:03:43;;;;;;;18.58;4.43;;;11.60;99.90;;;;;;5031518;28;20097;-74
2023/04/11 03:06:09;;;;;;;19.77;4.40;;;11.50;99.90;;;;;;5032673;28;20365;-74
2023/04/11 03:08:36;;;;;;;20.23;4.38;;;11.40;99.90;;;;;;5015053;28;20033;-74
2023/04/11 03:11:02;;;;;;;19.90;5.03;;;11.40;99.90;;;;;;5015061;28;20388;-74
2023/04/11 03:13:30;;;;;;;20.50;5.00;;;11.40;99.90;;;;;;5036403;28;20030;-74
2023/04/11 03:15:56;;;;;;;18.58;4.60;;;11.50;99.90;;;;;;5014291;28;20045;-74
2023/04/11 03:18:22;;;;;;;21.15;4.70;;;11.60;99.90;;;;;;5032557;28;20049;-74
2023/04/11 03:20:49;;;;;;;18.45;4.20;;;11.60;99.90;;;;;;5015073;28;20030;-74
2023/04/11 03:23:15;;;;;;;19.80;4.20;;;11.60;99.90;;;;;;5030774;28;20037;-74
2023/04/11 03:25:43;;;;;;;19.98;5.10;;;11.60;99.90;;;;;;5032309;28;20040;-74
2023/04/11 03:28:09;;;;;;;14.05;4.40;;;11.50;99.90;;;;;;5049790;28;20025;-74
2023/04/11 03:30:39;;;;;;;16.73;4.70;;;11.60;99.90;;;;;;5050543;28;20395;-74
2023/04/11 03:33:05;;;;;;;21.95;5.07;;;11.60;99.90;;;;;;5051185;28;20036;-74
2023/04/11 03:35:31;;;;;;;16.60;4.05;;;11.60;99.90;;;;;;5050813;28;20048;-73
2023/04/11 03:37:58;;;;;;;16.23;4.05;;;11.50;99.90;;;;;;5052266;28;20040;-74
2023/04/11 03:40:24;;;;;;;17.58;4.28;;;11.50;99.90;;;;;;5050880;28;20400;-74
2023/04/11 03:42:50;;;;;;;16.67;5.20;;;11.50;99.90;;;;;;5049897;28;20033;-74
2023/04/11 03:45:16;;;;;;;16.98;4.10;;;11.50;99.90;;;;;;5050330;28;20034;-74
2023/04/11 03:47:42;;;;;;;18.67;4.70;;;11.50;99.90;;;;;;5033951;28;20041;-74
2023/04/11 03:50:09;;;;;;;17.55;4.57;;;11.40;99.90;;;;;;5032566;28;20056;-74
2023/04/11 03:52:35;;;;;;;17.95;4.05;;;11.40;99.90;;;;;;5036070;28;20053;-74
2023/04/11 03:55:01;;;;;;;18.48;4.03;;;11.40;99.90;;;;;;5034984;28;20390;-74
2023/04/11 03:57:27;;;;;;;13.95;4.20;;;11.30;99.90;;;;;;5034849;28;20036;-74
2023/04/11 03:59:54;;;;;;;18.35;4.13;;;11.30;99.90;;;;;;5001689;28;20030;-74
2023/04/11 04:02:20;;;;;;;21.05;4.55;;;11.30;99.90;;;;;;5018113;28;20033;-74
2023/04/11 04:04:47;;;;;;;12.80;4.00;;;11.30;99.90;;;;;;5036038;28;20045;-74
2023/04/11 04:07:13;;;;;;;16.00;4.00;;;11.30;99.90;;;;;;5034588;28;20021;-74
2023/04/11 04:09:40;;;;;;;21.75;4.47;;;11.20;99.90;;;;;;5034663;28;20036;-74
2023/04/11 04:12:06;;;;;;;19.63;4.65;;;11.20;99.90;;;;;;5035521;28;20036;-74
2023/04/11 04:14:32;;;;;;;16.50;4.30;;;11.20;99.90;;;;;;5035723;28;20472;-74
2023/04/11 04:16:58;;;;;;;21.92;4.50;;;11.20;99.90;;;;;;5035335;28;20038;-73
2023/04/11 04:19:25;;;;;;;15.73;4.32;;;11.20;99.90;;;;;;5017509;28;20392;-74
2023/04/11 04:21:51;;;;;;;21.92;4.75;;;11.20;99.90;;;;;;5035583;28;20029;-74
2023/04/11 04:24:17;;;;;;;15.55;4.20;;;11.20;99.90;;;;;;5001459;28;20041;-74
2023/04/11 04:26:44;;;;;;;17.80;4.82;;;11.20;99.90;;;;;;5042412;28;20464;-74
2023/04/11 04:29:11;;;;;;;15.05;4.13;;;11.20;99.90;;;;;;5055389;28;20381;-74
2023/04/11 04:31:37;;;;;;;16.48;4.03;;;11.30;99.90;;;;;;5054934;28;20037;-74
2023/04/11 04:34:07;;;;;;;15.40;4.25;;;11.20;99.90;;;;;;5055458;28;20029;-75
2023/04/11 04:36:45;;;;;;;18.25;4.30;;;11.20;99.90;;;;;;5054104;28;20041;-75
2023/04/11 04:39:16;;;;;;;22.73;4.25;;;11.30;99.90;;;;;;5054226;28;20032;-77
2023/04/11 04:41:43;;;;;;;17.02;4.25;;;11.20;99.90;;;;;;5053657;28;20044;-78
2023/04/11 04:44:10;;;;;;;16.45;4.30;;;11.20;99.90;;;;;;5053988;28;20029;-79
2023/04/11 04:46:36;;;;;;;18.08;4.07;;;11.30;99.90;;;;;;5054724;28;20041;-74
2023/04/11 04:49:05;;;;;;;20.50;4.45;;;11.30;99.90;;;;;;5054976;28;20376;-74
2023/04/11 04:51:31;;;;;;;13.45;3.47;;;11.30;99.90;;;;;;5036383;28;20049;-74
2023/04/11 04:53:58;;;;;;;21.08;4.15;;;11.30;99.90;;;;;;5032626;28;20026;-74
2023/04/11 04:56:27;;;;;;;21.05;4.97;;;11.20;99.90;;;;;;5015889;28;20033;-74
2023/04/11 04:58:53;;;;;;;18.38;4.50;;;11.20;99.90;;;;;;5016307;28;20033;-74
2023/04/11 05:01:20;;;;;;;18.23;4.57;;;11.30;99.90;;;;;;5032153;28;20048;-74
2023/04/11 05:03:49;;;;;;;23.58;4.65;;;11.20;99.90;;;;;;5032542;28;20380;-75
2023/04/11 05:06:15;;;;;;;17.10;3.78;;;11.20;99.90;;;;;;5033811;28;20379;-74
2023/04/11 05:08:41;;;;;;;21.35;4.32;;;11.20;99.90;;;;;;5033502;28;20349;-74
2023/04/11 05:11:07;;;;;;;15.38;4.47;;;11.30;99.90;;;;;;5033253;28;20041;-74
2023/04/11 05:13:33;;;;;;;15.13;4.10;;;11.30;99.90;;;;;;5033533;28;20380;-74
2023/04/11 05:16:00;;;;;;;16.63;4.47;;;11.20;99.90;;;;;;5031852;28;20104;-74
2023/04/11 05:18:28;;;;;;;20.92;4.13;;;11.20;99.90;;;;;;5032369;28;20518;-74
2023/04/11 05:20:54;;;;;;;24.98;4.45;;;11.10;99.90;;;;;;5033557;28;20387;-74
2023/04/11 05:23:20;;;;;;;18.27;4.05;;;11.10;99.90;;;;;;5033176;28;20321;-74
2023/04/11 05:25:46;;;;;;;15.60;4.82;;;11.10;99.90;;;;;;5032211;28;20037;-75
2023/04/11 05:28:12;;;;;;;26.15;4.72;;;11.00;99.90;;;;;;5051527;28;20037;-76
2023/04/11 05:30:38;;;;;;;16.13;4.35;;;11.00;99.90;;;;;;5051629;28;20037;-79
2023/04/11 05:33:04;;;;;;;16.20;3.70;;;11.00;99.90;;;;;;5051994;28;20029;-76
2023/04/11 05:35:30;;;;;;;13.10;3.67;;;11.00;99.90;;;;;;5051928;28;20025;-77
2023/04/11 05:37:57;;;;;;;18.95;4.28;;;11.00;99.90;;;;;;5051560;28;20032;-76
2023/04/11 05:40:23;;;;;;;23.02;4.80;;;10.90;99.90;;;;;;5051816;28;20467;-78
2023/04/11 05:42:49;;;;;;;13.88;4.32;;;11.00;99.90;;;;;;5034812;28;20049;-79
2023/04/11 05:45:16;;;;;;;18.00;4.18;;;11.00;99.90;;;;;;5052482;28;20411;-79
2023/04/11 05:47:42;;;;;;;19.50;4.03;;;10.90;99.90;;;;;;5052925;28;20384;-79
2023/04/11 05:50:09;;;;;;;17.67;4.50;;;11.00;99.90;;;;;;5046159;28;20025;-77
2023/04/11 05:52:35;;;;;;;21.25;5.07;;;11.00;99.90;;;;;;4974718;28;1180540;-78
2023/04/11 05:55:03;;;;;;;16.52;4.20;;;11.10;99.90;;;;;;5016015;28;20037;-78
2023/04/11 05:57:29;;;;;;;13.10;3.80;;;11.10;99.90;;;;;;5032608;28;20037;-78
2023/04/11 05:59:55;;;;;;;25.50;4.85;;;11.10;99.90;;;;;;5032652;28;20372;-75
2023/04/11 06:02:21;;;;;;;17.20;4.35;;;11.10;99.90;;;;;;5031849;28;20034;-75
2023/04/11 06:04:47;;;;;;;19.77;3.90;;;11.10;99.90;;;;;;5032339;28;20030;-74
2023/04/11 06:07:13;;;;;;;14.52;4.25;;;11.10;99.90;;;;;;5033232;28;20032;-74
2023/04/11 06:09:41;;;;;;;18.73;4.50;;;11.10;99.90;;;;;;5015972;28;20025;-74
2023/04/11 06:12:08;;;;;;;21.73;4.78;;;11.10;99.90;;;;;;5032828;28;20397;-74
2023/04/11 06:14:34;;;;;;;18.45;4.63;;;11.20;99.90;;;;;;5016059;28;20052;-74
2023/04/11 06:17:00;;;;;;;16.17;4.38;;;11.10;99.90;;;;;;5032895;28;20048;-74
2023/04/11 06:19:26;;;;;;;18.00;4.22;;;11.20;99.90;;;;;;5032202;28;20380;-74
2023/04/11 06:21:52;;;;;;;21.08;5.35;;;11.20;99.90;;;;;;5031845;28;20047;-74
2023/04/11 06:24:33;;;;;;;16.00;4.35;;;11.30;99.90;;;;;;5033441;28;20449;-74
2023/04/11 06:26:59;;;;;;;23.95;4.53;;;11.30;99.90;;;;;;5026679;28;20389;-74
2023/04/11 06:29:25;;;;;;;12.18;3.97;;;11.40;99.90;;;;;;5035550;28;20033;-74
2023/04/11 06:31:51;;;;;;;24.85;4.32;;;11.40;99.90;;;;;;5052549;28;20048;-74
2023/04/11 06:34:17;;;;;;;17.02;4.07;;;11.40;99.90;;;;;;5052017;28;20419;-74
2023/04/11 06:36:46;;;;;;;16.02;4.57;;;11.50;99.90;;;;;;5052573;28;20045;-74
2023/04/11 06:39:13;;;;;;;20.92;5.05;;;11.60;99.90;;;;;;5053296;28;20418;-74
2023/04/11 06:41:39;;;;;;;18.90;4.70;;;11.60;99.90;;;;;;5051760;28;20040;-74
2023/04/11 06:44:05;;;;;;;25.15;5.38;;;11.60;99.90;;;;;;5045208;28;20036;-74
2023/04/11 06:46:31;;;;;;;15.60;4.00;;;11.50;99.90;;;;;;5019033;28;20022;-74
2023/04/11 06:48:57;;;;;;;18.80;4.35;;;11.50;99.90;;;;;;5012069;28;20030;-74
2023/04/11 06:51:23;;;;;;;18.30;5.57;;;11.60;99.90;;;;;;5027061;28;20037;-74
2023/04/11 06:53:49;;;;;;;28.73;11.68;;;11.70;99.90;;;;;;5031586;28;20030;-74
2023/04/11 06:56:16;;;;;;;26.13;11.35;;;11.80;99.90;;;;;;4998716;28;20042;-74
2023/04/11 06:58:42;;;;;;;16.83;7.00;;;11.80;99.90;;;;;;5032699;28;20048;-74
2023/04/11 07:01:08;;;;;;;43.42;19.90;;;11.80;99.90;;;;;;5014422;28;20041;-74
2023/04/11 07:03:34;;;;;;;17.55;6.50;;;11.80;99.90;;;;;;5032832;28;20029;-74
2023/04/11 07:06:00;;;;;;;22.95;7.68;;;11.80;99.90;;;;;;5032825;28;20479;-74
2023/04/11 07:08:27;;;;;;;17.80;6.95;;;11.90;99.90;;;;;;5014327;28;20045;-74
2023/04/11 07:10:53;;;;;;;25.05;9.18;;;11.90;99.90;;;;;;5031471;28;20486;-74
2023/04/11 07:13:20;;;;;;;23.08;8.18;;;11.90;99.90;;;;;;5031408;28;20025;-74
2023/04/11 07:15:46;;;;;;;23.33;7.00;;;12.00;99.90;;;;;;5031994;28;20033;-74
2023/04/11 07:18:13;;;;;;;32.58;11.77;;;12.10;99.90;;;;;;5032532;28;20044;-74
2023/04/11 07:20:39;;;;;;;22.75;8.23;;;12.10;99.90;;;;;;5014729;28;20029;-74
2023/04/11 07:23:05;;;;;;;26.00;7.53;;;12.20;99.90;;;;;;5031033;28;20029;-75
2023/04/11 07:25:32;;;;;;;21.58;8.13;;;12.10;99.90;;;;;;5031382;28;20022;-74
2023/04/11 07:28:07;;;;;;;17.27;4.63;;;12.20;99.90;;;;;;5030988;28;20384;-74
2023/04/11 07:30:34;;;;;;;25.95;9.13;;;12.20;99.90;;;;;;5030758;28;20365;-74
2023/04/11 07:33:01;;;;;;;16.75;5.63;;;12.20;99.90;;;;;;5031099;28;20021;-74
2023/04/11 07:35:29;;;;;;;24.67;10.52;;;12.30;99.90;;;;;;5032127;28;20025;-74
2023/04/11 07:37:57;;;;;;;20.55;6.28;;;12.30;99.90;;;;;;5032207;28;20038;-74
2023/04/11 07:40:23;;;;;;;22.25;7.25;;;12.40;99.90;;;;;;5032076;28;20032;-74
2023/04/11 07:42:49;;;;;;;15.55;5.45;;;12.50;99.90;;;;;;5031243;28;20033;-75
2023/04/11 07:45:15;;;;;;;21.00;5.68;;;12.50;99.90;;;;;;5016308;28;20033;-75
2023/04/11 07:47:41;;;;;;;19.85;7.07;;;12.50;99.90;;;;;;5032116;28;20021;-74
2023/04/11 07:50:08;;;;;;;20.25;6.72;;;12.60;99.90;;;;;;5016284;28;20026;-74
2023/04/11 07:52:34;;;;;;;22.25;6.20;;;12.50;99.90;;;;;;5031869;28;20053;-74
2023/04/11 07:55:00;;;;;;;26.00;9.40;;;12.50;99.90;;;;;;5032080;28;20034;-74
2023/04/11 07:57:26;;;;;;;22.45;6.70;;;12.50;99.90;;;;;;5031897;28;20037;-75
2023/04/11 07:59:52;;;;;;;21.92;6.30;;;12.60;99.90;;;;;;5030848;28;20037;-74
2023/04/11 08:02:18;;;;;;;25.15;6.07;;;12.60;99.90;;;;;;5031625;28;20034;-74
2023/04/11 08:04:44;;;;;;;19.98;5.22;;;12.70;99.90;;;;;;5030512;28;20025;-74
2023/04/11 08:07:10;;;;;;;17.33;6.00;;;12.80;99.90;;;;;;5030653;28;20036;-75
2023/04/11 08:09:36;;;;;;;25.05;5.80;;;12.80;99.90;;;;;;5031955;28;20108;-74
2023/04/11 08:12:03;;;;;;;21.85;4.90;;;12.90;99.90;;;;;;5030785;28;20033;-74
2023/04/11 08:14:29;;;;;;;16.00;4.70;;;12.90;99.90;;;;;;5030701;28;20017;-75
2023/04/11 08:16:55;;;;;;;22.90;4.97;;;12.80;99.90;;;;;;5031464;28;20515;-74
2023/04/11 08:19:21;;;;;;;16.50;5.13;;;12.80;99.90;;;;;;5030350;28;20029;-75
2023/04/11 08:21:48;;;;;;;20.52;5.18;;;12.80;99.90;;;;;;5030906;28;20030;-74
2023/04/11 08:24:14;;;;;;;22.27;4.85;;;12.90;99.90;;;;;;5030650;28;20037;-74
2023/04/11 08:26:40;;;;;;;24.67;4.97;;;13.00;99.90;;;;;;5038444;28;20103;-74
2023/04/11 08:29:09;;;;;;;21.45;4.20;;;13.10;99.90;;;;;;5067160;28;20040;-74
2023/04/11 08:31:36;;;;;;;19.90;5.25;;;13.10;99.90;;;;;;5051361;28;20041;-74
2023/04/11 08:34:02;;;;;;;17.95;4.60;;;13.20;99.90;;;;;;5051758;28;20387;-74
2023/04/11 08:36:30;;;;;;;19.02;4.65;;;13.10;99.90;;;;;;5053994;28;20490;-74
2023/04/11 08:38:56;;;;;;;20.92;4.95;;;13.10;99.90;;;;;;5055342;28;20047;-74
2023/04/11 08:41:22;;;;;;;24.75;4.57;;;13.20;99.90;;;;;;5053954;28;20040;-74
2023/04/11 08:43:48;;;;;;;17.83;4.63;;;13.30;99.90;;;;;;5055056;28;20433;-74
2023/04/11 08:46:16;;;;;;;22.17;4.55;;;13.20;99.90;;;;;;5053447;28;20033;-75
2023/04/11 08:48:42;;;;;;;20.02;4.85;;;13.20;99.90;;;;;;5055499;28;20030;-74
2023/04/11 08:51:08;;;;;;;22.90;4.72;;;13.20;99.90;;;;;;5039932;28;20053;-74
2023/04/11 08:53:35;;;;;;;23.75;4.63;;;13.30;99.90;;;;;;5034026;28;20033;-74
2023/04/11 08:56:02;;;;;;;18.40;4.82;;;13.30;99.90;;;;;;5017517;28;20025;-74
2023/04/11 08:58:28;;;;;;;16.45;4.38;;;13.30;99.90;;;;;;5033848;28;20380;-74
2023/04/11 09:00:54;;;;;;;20.25;4.63;;;13.20;99.90;;;;;;5016030;28;20038;-74
2023/04/11 09:03:20;;;;;;;15.73;4.80;;;13.20;99.90;;;;;;5033708;28;20029;-75
2023/04/11 09:05:47;;;;;;;23.45;4.72;;;13.30;99.90;;;;;;5033822;28;20467;-74
2023/04/11 09:08:14;;;;;;;15.95;4.82;;;13.30;99.90;;;;;;5034797;28;20045;-75
2023/04/11 09:10:44;;;;;;;19.38;4.45;;;13.20;99.90;;;;;;5017225;28;20490;-74
2023/04/11 09:13:23;;;;;;;15.23;4.07;;;13.30;99.90;;;;;;5033516;28;20040;-74
2023/04/11 09:16:10;;;;;;;14.73;4.68;;;13.40;99.90;;;;;;5033813;28;20401;-74
2023/04/11 09:18:38;;;;;;;22.42;5.35;;;13.60;99.90;;;;;;5033269;28;20037;-74
2023/04/11 09:21:06;;;;;;;19.55;4.30;;;13.80;99.90;;;;;;5016944;28;20048;-74
2023/04/11 09:23:32;;;;;;;23.80;4.78;;;14.10;99.90;;;;;;5017028;28;20017;-74
2023/04/11 09:25:58;;;;;;;14.45;4.43;;;14.30;99.90;;;;;;5034308;28;20026;-75
2023/04/11 09:28:24;;;;;;;14.45;4.53;;;14.50;99.90;;;;;;5052699;28;20044;-74
2023/04/11 09:30:51;;;;;;;18.55;4.43;;;14.70;99.90;;;;;;5035349;28;20395;-74
2023/04/11 09:33:20;;;;;;;18.45;4.65;;;14.80;99.90;;;;;;5053143;28;20029;-75
2023/04/11 09:35:53;;;;;;;13.52;4.20;;;14.80;99.90;;;;;;5053963;28;20044;-75
2023/04/11 09:38:32;;;;;;;15.95;5.00;;;14.90;99.90;;;;;;5052883;28;20044;-75
2023/04/11 09:41:02;;;;;;;14.35;4.95;;;14.90;99.90;;;;;;5054238;28;20025;-74
2023/04/11 09:43:50;;;;;;;15.57;4.22;;;15.00;99.90;;;;;;5053009;28;20021;-75
2023/04/11 09:46:19;;;;;;;13.90;4.57;;;15.00;99.90;;;;;;5067120;28;20037;-75
2023/04/11 09:48:49;;;;;;;17.98;4.07;;;15.00;99.90;;;;;;5052161;28;20032;-75
2023/04/11 09:51:15;;;;;;;17.98;4.53;;;15.00;99.90;;;;;;5037310;28;20045;-75
2023/04/11 09:53:41;;;;;;;17.15;4.40;;;15.00;99.90;;;;;;5033924;28;20021;-74
2023/04/11 09:56:08;;;;;;;11.77;4.40;;;15.00;99.90;;;;;;5016283;28;20087;-74
2023/04/11 09:58:35;;;;;;;16.42;4.45;;;15.00;99.90;;;;;;4999942;28;20064;-74
2023/04/11 10:01:02;;;;;;;12.00;4.45;;;15.00;99.90;;;;;;5033098;28;20026;-74
2023/04/11 10:03:33;;;;;;;14.60;4.30;;;15.10;99.90;;;;;;5032591;28;20030;-74
2023/04/11 10:05:59;;;;;;;;;;;15.30;99.90;;;;;;5032838;28;20037;-74
2023/04/11 10:08:31;;;;;;;14.60;4.50;;;15.40;99.90;;;;;;5032429;28;20370;-74
2023/04/11 10:10:58;;;;;;;14.48;4.88;;;15.50;99.90;;;;;;5032320;28;20400;-74
2023/04/11 10:13:41;;;;;;;19.23;4.28;;;15.50;99.90;;;;;;5015757;28;20025;-74
2023/04/11 10:16:17;;;;;;;18.30;4.82;;;15.40;99.90;;;;;;5033089;28;20029;-75
2023/04/11 10:19:06;;;;;;;14.75;4.78;;;15.30;99.90;;;;;;5033598;28;20384;-74
2023/04/11 10:21:32;;;;;;;14.82;4.07;;;15.30;99.90;;;;;;5033429;28;20476;-74
2023/04/11 10:24:15;;;;;;;17.33;4.32;;;15.40;99.90;;;;;;5033377;28;20033;-74
2023/04/11 10:26:54;;;;;;;15.32;4.50;;;15.40;99.90;;;;;;5038944;28;20353;-74
2023/04/11 10:29:33;;;;;;;13.70;4.07;;;15.40;99.90;;;;;;5051727;28;20043;-74
2023/04/11 10:32:14;;;;;;;13.65;4.55;;;15.30;99.90;;;;;;5052816;28;20025;-74
2023/04/11 10:34:49;;;;;;;13.68;4.22;;;15.30;99.90;;;;;;5053089;28;20032;-74
2023/04/11 10:37:29;;;;;;;20.98;4.93;;;15.30;99.90;;;;;;5052969;28;20045;-75
2023/04/11 10:39:59;;;;;;;13.68;3.85;;;15.40;99.90;;;;;;5051839;28;20028;-75
2023/04/11 10:42:28;;;;;;;20.77;4.80;;;15.50;99.90;;;;;;5052604;28;20028;-74
2023/04/11 10:45:13;;;;;;;13.93;4.57;;;15.50;99.90;;;;;;5052870;28;20024;-74
2023/04/11 10:47:39;;;;;;;13.07;4.72;;;15.60;99.90;;;;;;5052062;28;20411;-74
2023/04/11 10:50:24;;;;;;;20.25;4.20;;;15.60;99.90;;;;;;5046567;28;20021;-75
2023/04/11 10:52:54;;;;;;;12.20;4.60;;;15.60;99.90;;;;;;5032781;28;20045;-74
2023/04/11 10:55:20;;;;;;;16.95;4.75;;;15.60;99.90;;;;;;5031742;28;20037;-74
2023/04/11 10:58:22;;;;;;;18.83;5.10;;;15.60;99.90;;;;;;5030819;28;20040;-75
2023/04/11 11:03:14;;;;;;;13.57;5.00;;;15.50;99.90;;;;;;4952766;28;20039;-75
2023/04/11 11:05:40;;;;;;;15.57;4.78;;;15.40;99.90;;;;;;4920637;29;20047;-74
2023/04/11 11:08:07;;;;;;;12.43;4.35;;;15.50;99.90;;;;;;4936552;29;20111;-74
2023/04/11 11:10:44;;;;;;;11.73;5.15;;;15.60;99.90;;;;;;4936400;29;20039;-74
2023/04/11 11:13:14;;;;;;;14.95;5.03;;;15.80;99.90;;;;;;4937071;29;20042;-75
2023/04/11 11:15:46;;;;;;;13.18;4.72;;;16.00;99.90;;;;;;4951756;28;20035;-75
2023/04/11 11:18:13;;;;;;;15.65;4.65;;;16.10;99.90;;;;;;4936116;29;20062;-75
2023/04/11 11:20:39;;;;;;;13.60;4.80;;;16.20;99.90;;;;;;4936246;29;20038;-74
2023/04/11 11:23:07;;;;;;;11.80;4.38;;;16.30;99.90;;;;;;4936160;29;20074;-74
2023/04/11 11:25:33;;;;;;;15.75;4.88;;;16.50;99.90;;;;;;4936554;29;20035;-74
2023/04/11 11:28:06;;;;;;;15.25;5.18;;;16.50;99.90;;;;;;4949374;28;20051;-75
2023/04/11 11:30:35;;;;;;;17.30;5.25;;;16.40;99.90;;;;;;4935816;28;20173;-75
2023/04/11 11:33:21;;;;;;;14.00;4.38;;;16.40;99.90;;;;;;4936141;29;20043;-74
2023/04/11 11:35:56;;;;;;;12.38;4.60;;;16.20;99.90;;;;;;5002217;28;20045;-74
2023/04/11 11:38:25;;;;;;;15.45;4.97;;;16.30;99.90;;;;;;5012390;28;20030;-74
2023/04/11 11:40:51;;;;;;;10.50;4.40;;;16.30;99.90;;;;;;4994930;28;20022;-75
2023/04/11 11:43:17;;;;;;;16.70;4.70;;;16.30;99.90;;;;;;5012254;28;20056;-75
2023/04/11 11:45:43;;;;;;;16.48;4.47;;;16.30;99.90;;;;;;5030360;28;20530;-74
2023/04/11 11:48:23;;;;;;;13.75;4.32;;;16.40;99.90;;;;;;5014640;28;20030;-75
2023/04/11 11:50:56;;;;;;;11.55;4.47;;;16.30;99.90;;;;;;5021045;28;20030;-75
2023/04/11 11:53:22;;;;;;;10.02;4.10;;;16.30;99.90;;;;;;5011330;28;20045;-74
2023/04/11 11:55:48;;;;;;;10.35;4.10;;;16.20;99.90;;;;;;4994623;28;20029;-74
2023/04/11 11:58:16;;;;;;;15.35;4.20;;;16.20;99.90;;;;;;4994748;28;20037;-75
2023/04/11 12:00:42;;;;;;;13.20;4.43;;;16.10;99.90;;;;;;5011503;28;20030;-75
2023/04/11 12:03:10;;;;;;;11.70;4.25;;;16.10;99.90;;;;;;4994929;28;20037;-75
2023/04/11 12:05:37;;;;;;;10.38;3.72;;;16.10;99.90;;;;;;5011296;28;20030;-74
2023/04/11 12:08:05;;;;;;;9.63;4.30;;;16.10;99.90;;;;;;5011083;28;20042;-75
2023/04/11 12:10:41;;;;;;;16.10;4.25;;;16.00;99.90;;;;;;5013538;28;20053;-75
2023/04/11 12:13:19;;;;;;;15.02;4.22;;;16.00;99.90;;;;;;5014924;28;20034;-75
2023/04/11 12:15:50;;;;;;;12.73;3.88;;;16.00;99.90;;;;;;4998383;28;20030;-75
2023/04/11 12:18:19;;;;;;;10.32;4.30;;;16.00;99.90;;;;;;4998679;28;20037;-74
2023/04/11 12:20:45;;;;;;;9.25;4.20;;;16.00;99.90;;;;;;4998322;28;20029;-75
2023/04/11 12:23:11;;;;;;;12.32;4.35;;;15.80;99.90;;;;;;4997815;28;20408;-74
2023/04/11 12:25:37;;;;;;;11.77;3.78;;;15.70;99.90;;;;;;5015623;28;20030;-74
2023/04/11 12:28:04;;;;;;;12.18;3.97;;;15.80;99.90;;;;;;5033592;28;20040;-75
2023/04/11 12:30:30;;;;;;;10.40;3.70;;;15.80;99.90;;;;;;5054283;28;20033;-75
2023/04/11 12:32:57;;;;;;;10.65;4.28;;;15.80;99.90;;;;;;5055429;28;20029;-74
2023/04/11 12:35:23;;;;;;;8.95;4.32;;;15.80;99.90;;;;;;5055359;28;20033;-75
2023/04/11 12:37:49;;;;;;;11.23;4.10;;;15.90;99.90;;;;;;5037007;28;20045;-74
2023/04/11 12:40:15;;;;;;;15.45;4.53;;;15.90;99.90;;;;;;5055421;28;20025;-74
2023/04/11 12:42:44;;;;;;;9.93;3.92;;;15.80;99.90;;;;;;5054187;28;20033;-75